PWSweather.com
Personal Weather Stations
Station Observations
FAUSKE
Nordland, Norway, FauskeNO 8200

Nordland, NorwayFauskeNO 8200

Lat: 67.2607586, Lon: 15.4114204

Elevation: 40

Station Type: Davis Vantage PRO2

http://www.bjornli.net/weather.html

Latest ConditionsUpdated 2:40:05 PM GMT+01:01 Sunday, Aug 30, 2015
Currently Today's Max Today's Min Today's Average
Temperature 57.1°F13.9°C 57.1°F13.9°C 50.5°F10.3°C 52.9°F11.6°C
Dew Point 54.8°F12.7°C 54.8°F12.7°C 49.0°F9.4°C 51.0°F10.6°C
Winds Calm Calm 5.0 mph SE8.0 kmh SE - 0.4 mph 0.6 kmh
Wind Gusts -- 10.0 mph16.1 kmh - -
Humidity 92% 95% 87% 94%
Pressure 29.79 in1008.8 mb 29.79 in1008.8 mb 29.70 in1005.8 mb -
Hour Temp Dew Point Humidity Winds Wind Gusts Pressure Precip Precip Rate Daily Precip Total
02:40 PM 57.1°F13.9°C 54.8°F12.7°C 92% Calm Calm -- 29.79 in1008.8 mb 0.00 in0.0 mm 0.00 in0.0 mm 0.09 in2.3 mm
02:30 PM 56.8°F13.8°C 54.8°F12.7°C 93% Calm Calm -- 29.79 in1008.8 mb 0.00 in0.0 mm 0.00 in0.0 mm 0.09 in2.3 mm
02:10 PM 56.3°F13.5°C 54.6°F12.6°C 94% Calm Calm 3.0 mph4.8 kmh 29.79 in1008.8 mb 0.00 in0.0 mm 0.00 in0.0 mm 0.09 in2.3 mm
02:00 PM 55.9°F13.3°C 54.2°F12.3°C 94% Calm Calm -- 29.79 in1008.8 mb 0.00 in0.0 mm 0.00 in0.0 mm 0.09 in2.3 mm
01:40 PM 55.7°F13.2°C 54.0°F12.2°C 94% Calm Calm 5.0 mph8.0 kmh 29.79 in1008.8 mb 0.00 in0.0 mm 0.00 in0.0 mm 0.09 in2.3 mm
01:30 PM 55.7°F13.2°C 54.3°F12.4°C 95% Calm Calm -- 29.79 in1008.8 mb 0.00 in0.0 mm 0.00 in0.0 mm 0.09 in2.3 mm
01:10 PM 55.7°F13.2°C 54.3°F12.4°C 95% Calm Calm -- 29.79 in1008.8 mb 0.00 in0.0 mm 0.00 in0.0 mm 0.09 in2.3 mm
01:00 PM 55.6°F13.1°C 54.2°F12.3°C 95% Calm Calm -- 29.78 in1008.5 mb 0.00 in0.0 mm 0.00 in0.0 mm 0.09 in2.3 mm
12:40 PM 55.6°F13.1°C 54.2°F12.3°C 95% Calm Calm -- 29.78 in1008.5 mb 0.00 in0.0 mm 0.00 in0.0 mm 0.09 in2.3 mm
12:30 PM 55.5°F13.1°C 54.1°F12.3°C 95% Calm Calm -- 29.77 in1008.1 mb 0.00 in0.0 mm 0.00 in0.0 mm 0.09 in2.3 mm
12:10 PM 55.1°F12.8°C 53.7°F12.1°C 95% Calm Calm -- 29.77 in1008.1 mb 0.02 in0.5 mm 0.00 in0.0 mm 0.09 in2.3 mm
12:00 PM 54.9°F12.7°C 53.5°F11.9°C 95% Calm Calm -- 29.77 in1008.1 mb 0.02 in0.5 mm 0.00 in0.0 mm 0.09 in2.3 mm
11:40 AM 54.1°F12.3°C 52.7°F11.5°C 95% Calm Calm -- 29.77 in1008.1 mb 0.04 in1.0 mm 0.00 in0.0 mm 0.09 in2.3 mm
11:30 AM 53.9°F12.2°C 52.5°F11.4°C 95% Calm Calm -- 29.77 in1008.1 mb 0.04 in1.0 mm 0.00 in0.0 mm 0.09 in2.3 mm
11:10 AM 53.6°F12.0°C 52.2°F11.2°C 95% 1.0 mph S1.6 kmh S 4.0 mph6.4 kmh 29.77 in1008.1 mb 0.04 in1.0 mm 0.00 in0.0 mm 0.09 in2.3 mm
11:00 AM 53.8°F12.1°C 52.4°F11.3°C 95% Calm Calm -- 29.76 in1007.8 mb 0.04 in1.0 mm 0.00 in0.0 mm 0.09 in2.3 mm
10:40 AM 54.1°F12.3°C 52.7°F11.5°C 95% Calm Calm -- 29.76 in1007.8 mb 0.04 in1.0 mm 0.12 in3.0 mm 0.09 in2.3 mm
10:30 AM 54.1°F12.3°C 52.7°F11.5°C 95% Calm Calm -- 29.76 in1007.8 mb 0.02 in0.5 mm 0.00 in0.0 mm 0.07 in1.8 mm
10:10 AM 53.7°F12.1°C 52.3°F11.3°C 95% Calm Calm -- 29.75 in1007.5 mb 0.02 in0.5 mm 0.00 in0.0 mm 0.07 in1.8 mm
10:00 AM 53.5°F11.9°C 52.1°F11.2°C 95% Calm Calm -- 29.75 in1007.5 mb 0.02 in0.5 mm 0.00 in0.0 mm 0.07 in1.8 mm
09:40 AM 53.1°F11.7°C 51.7°F10.9°C 95% Calm Calm 4.0 mph6.4 kmh 29.75 in1007.5 mb 0.02 in0.5 mm 0.00 in0.0 mm 0.07 in1.8 mm
09:30 AM 53.0°F11.7°C 51.6°F10.9°C 95% Calm Calm -- 29.75 in1007.5 mb 0.02 in0.5 mm 0.00 in0.0 mm 0.07 in1.8 mm
09:10 AM 53.0°F11.7°C 51.3°F10.7°C 94% Calm Calm -- 29.76 in1007.8 mb 0.02 in0.5 mm 0.00 in0.0 mm 0.07 in1.8 mm
09:00 AM 52.9°F11.6°C 51.2°F10.7°C 94% Calm Calm -- 29.75 in1007.5 mb 0.02 in0.5 mm 0.00 in0.0 mm 0.07 in1.8 mm
08:40 AM 52.7°F11.5°C 50.7°F10.4°C 93% Calm Calm -- 29.75 in1007.5 mb 0.02 in0.5 mm 0.00 in0.0 mm 0.07 in1.8 mm
08:30 AM 52.6°F11.4°C 50.6°F10.3°C 93% Calm Calm -- 29.74 in1007.1 mb 0.02 in0.5 mm 0.03 in0.8 mm 0.07 in1.8 mm
08:10 AM 53.0°F11.7°C 50.7°F10.4°C 92% Calm Calm -- 29.74 in1007.1 mb 0.01 in0.3 mm 0.00 in0.0 mm 0.06 in1.5 mm
08:00 AM 53.3°F11.8°C 50.7°F10.4°C 91% Calm Calm -- 29.74 in1007.1 mb 0.01 in0.3 mm 0.00 in0.0 mm 0.06 in1.5 mm
07:40 AM 53.3°F11.8°C 50.7°F10.4°C 91% Calm Calm 6.0 mph9.7 kmh 29.73 in1006.8 mb 0.01 in0.3 mm 0.06 in1.5 mm 0.06 in1.5 mm
07:30 AM 53.0°F11.7°C 50.7°F10.4°C 92% Calm Calm -- 29.73 in1006.8 mb 0.00 in0.0 mm 0.00 in0.0 mm 0.05 in1.3 mm
07:10 AM 52.1°F11.2°C 50.4°F10.2°C 94% Calm Calm 4.0 mph6.4 kmh 29.72 in1006.4 mb 0.00 in0.0 mm 0.00 in0.0 mm 0.05 in1.3 mm
07:00 AM 51.9°F11.1°C 50.2°F10.1°C 94% Calm Calm -- 29.72 in1006.4 mb 0.00 in0.0 mm 0.00 in0.0 mm 0.05 in1.3 mm
06:40 AM 51.5°F10.8°C 49.8°F9.9°C 94% Calm Calm 6.0 mph9.7 kmh 29.72 in1006.4 mb 0.01 in0.3 mm 0.00 in0.0 mm 0.05 in1.3 mm
06:30 AM 51.4°F10.8°C 49.7°F9.8°C 94% 5.0 mph SE8.0 kmh SE 5.0 mph8.0 kmh 29.72 in1006.4 mb 0.01 in0.3 mm 0.00 in0.0 mm 0.05 in1.3 mm
06:10 AM 51.4°F10.8°C 49.5°F9.7°C 93% Calm Calm -- 29.73 in1006.8 mb 0.02 in0.5 mm 0.00 in0.0 mm 0.05 in1.3 mm
06:00 AM 51.3°F10.7°C 49.4°F9.7°C 93% Calm Calm -- 29.72 in1006.4 mb 0.02 in0.5 mm 0.02 in0.5 mm 0.05 in1.3 mm
05:40 AM 51.2°F10.7°C 49.3°F9.6°C 93% Calm Calm -- 29.72 in1006.4 mb 0.01 in0.3 mm 0.00 in0.0 mm 0.04 in1.0 mm
05:30 AM 51.3°F10.7°C 49.4°F9.7°C 93% Calm Calm -- 29.72 in1006.4 mb 0.01 in0.3 mm 0.03 in0.8 mm 0.04 in1.0 mm
05:10 AM 51.3°F10.7°C 49.1°F9.5°C 92% Calm Calm -- 29.72 in1006.4 mb 0.00 in0.0 mm 0.00 in0.0 mm 0.03 in0.8 mm
05:00 AM 51.3°F10.7°C 49.1°F9.5°C 92% Calm Calm -- 29.72 in1006.4 mb 0.00 in0.0 mm 0.00 in0.0 mm 0.03 in0.8 mm
04:40 AM 51.2°F10.7°C 49.0°F9.4°C 92% 3.0 mph SE4.8 kmh SE 4.0 mph6.4 kmh 29.72 in1006.4 mb 0.00 in0.0 mm 0.00 in0.0 mm 0.03 in0.8 mm
04:30 AM 51.5°F10.8°C 49.0°F9.4°C 91% Calm Calm -- 29.72 in1006.4 mb 0.00 in0.0 mm 0.00 in0.0 mm 0.03 in0.8 mm
04:10 AM 52.1°F11.2°C 49.3°F9.6°C 90% Calm Calm -- 29.72 in1006.4 mb 0.00 in0.0 mm 0.00 in0.0 mm 0.03 in0.8 mm
04:00 AM 52.6°F11.4°C 49.2°F9.6°C 88% Calm Calm -- 29.72 in1006.4 mb 0.00 in0.0 mm 0.00 in0.0 mm 0.03 in0.8 mm
03:40 AM 52.8°F11.6°C 49.0°F9.4°C 87% 5.0 mph SE8.0 kmh SE 9.0 mph14.5 kmh 29.71 in1006.1 mb 0.00 in0.0 mm 0.00 in0.0 mm 0.03 in0.8 mm
03:30 AM 52.5°F11.4°C 49.4°F9.7°C 89% 3.0 mph SE4.8 kmh SE 4.0 mph6.4 kmh 29.71 in1006.1 mb 0.00 in0.0 mm 0.00 in0.0 mm 0.03 in0.8 mm
03:10 AM 51.7°F10.9°C 49.5°F9.7°C 92% Calm Calm 10.0 mph16.1 kmh 29.71 in1006.1 mb 0.00 in0.0 mm 0.00 in0.0 mm 0.03 in0.8 mm
03:00 AM 51.2°F10.7°C 49.5°F9.7°C 94% 4.0 mph SE6.4 kmh SE 4.0 mph6.4 kmh 29.71 in1006.1 mb 0.00 in0.0 mm 0.00 in0.0 mm 0.03 in0.8 mm
02:40 AM 50.5°F10.3°C 49.1°F9.5°C 95% 4.0 mph SE6.4 kmh SE 7.0 mph11.3 kmh 29.72 in1006.4 mb 0.00 in0.0 mm 0.00 in0.0 mm 0.03 in0.8 mm
02:30 AM 50.5°F10.3°C 49.1°F9.5°C 95% Calm Calm -- 29.71 in1006.1 mb 0.00 in0.0 mm 0.00 in0.0 mm 0.03 in0.8 mm
02:10 AM 50.7°F10.4°C 49.3°F9.6°C 95% Calm Calm -- 29.71 in1006.1 mb 0.00 in0.0 mm 0.00 in0.0 mm 0.03 in0.8 mm
02:00 AM 50.8°F10.4°C 49.4°F9.7°C 95% Calm Calm -- 29.71 in1006.1 mb 0.00 in0.0 mm 0.00 in0.0 mm 0.03 in0.8 mm
01:40 AM 50.7°F10.4°C 49.3°F9.6°C 95% Calm Calm 2.0 mph3.2 kmh 29.71 in1006.1 mb 0.02 in0.5 mm 0.00 in0.0 mm 0.03 in0.8 mm
01:30 AM 50.7°F10.4°C 49.3°F9.6°C 95% Calm Calm -- 29.71 in1006.1 mb 0.02 in0.5 mm 0.00 in0.0 mm 0.03 in0.8 mm
01:10 AM 50.9°F10.5°C 49.5°F9.7°C 95% Calm Calm -- 29.71 in1006.1 mb 0.03 in0.8 mm 0.00 in0.0 mm 0.03 in0.8 mm
01:00 AM 50.9°F10.5°C 49.2°F9.6°C 94% Calm Calm -- 29.71 in1006.1 mb 0.03 in0.8 mm 0.00 in0.0 mm 0.03 in0.8 mm
12:40 AM 51.1°F10.6°C 49.4°F9.7°C 94% Calm Calm 2.0 mph3.2 kmh 29.72 in1006.4 mb 0.03 in0.8 mm 0.06 in1.5 mm 0.03 in0.8 mm
12:30 AM 51.1°F10.6°C 49.4°F9.7°C 94% Calm Calm -- 29.71 in1006.1 mb 0.02 in0.5 mm 0.00 in0.0 mm 0.02 in0.5 mm
12:10 AM 51.2°F10.7°C 49.5°F9.7°C 94% Calm Calm 5.0 mph8.0 kmh 29.70 in1005.8 mb 0.02 in0.5 mm 0.00 in0.0 mm 0.02 in0.5 mm
12:00 AM 51.2°F10.7°C 49.3°F9.6°C 93% Calm Calm -- 29.70 in1005.8 mb 0.02 in0.5 mm 0.00 in0.0 mm 0.02 in0.5 mm